createdAt,value
2022-10-08T00:01:35.121Z,10.18
2022-10-08T00:04:05.897Z,10.19
2022-10-08T00:06:36.334Z,10.30
2022-10-08T00:09:10.480Z,10.33
2022-10-08T00:11:42.778Z,10.33
2022-10-08T00:14:13.725Z,10.29
2022-10-08T00:16:46.583Z,10.33
2022-10-08T00:19:17.829Z,10.34
2022-10-08T00:21:53.312Z,10.24
2022-10-08T00:24:23.939Z,10.25
2022-10-08T00:26:55.118Z,10.22
2022-10-08T00:29:24.987Z,10.12
2022-10-08T00:31:59.255Z,10.04
2022-10-08T00:34:30.026Z,10.12
2022-10-08T00:37:01.133Z,10.08
2022-10-08T00:39:30.971Z,10.08
2022-10-08T00:42:02.363Z,10.02
2022-10-08T00:44:48.069Z,10.03
2022-10-08T00:47:23.293Z,9.97
2022-10-08T00:49:56.403Z,9.89
2022-10-08T00:52:28.667Z,9.87
2022-10-08T00:54:59.690Z,9.88
2022-10-08T00:57:29.978Z,9.96
2022-10-08T01:00:00.240Z,9.87
2022-10-08T01:02:33.916Z,9.83
2022-10-08T01:05:04.914Z,9.84
2022-10-08T01:07:39.421Z,9.88
2022-10-08T01:10:12.716Z,9.73
2022-10-08T01:12:48.881Z,9.72
2022-10-08T01:15:24.571Z,9.69
2022-10-08T01:18:02.133Z,9.67
2022-10-08T01:20:35.418Z,9.72
2022-10-08T01:23:33.501Z,9.71
2022-10-08T01:26:09.069Z,9.70
2022-10-08T01:28:43.762Z,9.62
2022-10-08T01:31:15.953Z,9.53
2022-10-08T01:33:48.786Z,9.55
2022-10-08T01:36:20.236Z,9.49
2022-10-08T01:38:53.622Z,9.49
2022-10-08T01:41:26.063Z,9.37
2022-10-08T01:44:02.239Z,9.42
2022-10-08T01:46:33.257Z,9.41
2022-10-08T01:49:06.996Z,9.36
2022-10-08T01:51:39.484Z,9.38
2022-10-08T01:54:11.899Z,9.44
2022-10-08T01:56:43.196Z,9.39
2022-10-08T01:59:18.628Z,9.30
2022-10-08T02:01:53.611Z,9.33
2022-10-08T02:04:37.704Z,9.44
2022-10-08T02:07:09.183Z,9.36
2022-10-08T02:09:40.885Z,9.31
2022-10-08T02:12:11.943Z,9.32
2022-10-08T02:14:46.579Z,9.22
2022-10-08T02:17:23.777Z,9.26
2022-10-08T02:19:57.707Z,9.17
2022-10-08T02:22:32.196Z,9.12
2022-10-08T02:25:04.770Z,9.13
2022-10-08T02:27:42.504Z,9.21
2022-10-08T02:30:16.718Z,9.14
2022-10-08T02:32:54.295Z,9.18
2022-10-08T02:35:28.298Z,9.18
2022-10-08T02:38:01.604Z,9.21
2022-10-08T02:40:33.564Z,9.19
2022-10-08T02:43:07.251Z,9.33
2022-10-08T02:45:46.760Z,9.29
2022-10-08T02:48:20.525Z,9.25
2022-10-08T02:50:52.716Z,9.28
2022-10-08T02:53:24.550Z,9.28
2022-10-08T02:56:01.815Z,9.21
2022-10-08T02:58:32.841Z,9.16
2022-10-08T03:01:10.911Z,9.14
2022-10-08T03:03:42.928Z,9.10
2022-10-08T03:06:15.000Z,9.08
2022-10-08T03:08:48.189Z,9.01
2022-10-08T03:11:18.621Z,8.98
2022-10-08T03:13:51.443Z,8.89
2022-10-08T03:16:27.357Z,8.92
2022-10-08T03:18:59.306Z,8.97
2022-10-08T03:21:30.438Z,9.01
2022-10-08T03:24:01.033Z,8.98
2022-10-08T03:26:31.194Z,8.96
2022-10-08T03:29:01.029Z,8.95
2022-10-08T03:31:33.835Z,8.88
2022-10-08T03:34:04.161Z,8.88
2022-10-08T03:36:35.212Z,8.88
2022-10-08T03:39:07.304Z,8.86
2022-10-08T03:41:38.058Z,8.86
2022-10-08T03:44:10.982Z,8.83
2022-10-08T03:46:44.741Z,8.88
2022-10-08T03:49:14.988Z,8.89
2022-10-08T03:51:45.035Z,8.86
2022-10-08T03:54:14.995Z,8.76
2022-10-08T03:56:45.785Z,8.77
2022-10-08T03:59:15.991Z,8.74
2022-10-08T04:01:49.680Z,8.76
2022-10-08T04:04:25.236Z,8.72
2022-10-08T04:06:56.445Z,8.67
2022-10-08T04:09:27.044Z,8.62
2022-10-08T04:11:59.358Z,8.65
2022-10-08T04:14:30.091Z,8.61
2022-10-08T04:17:05.055Z,8.63
2022-10-08T04:19:35.032Z,8.66
2022-10-08T04:22:05.062Z,8.59
2022-10-08T04:24:35.156Z,8.55
2022-10-08T04:27:06.121Z,8.59
2022-10-08T04:29:36.012Z,8.59
2022-10-08T04:32:09.353Z,8.60
2022-10-08T04:34:39.045Z,8.61
2022-10-08T04:37:11.156Z,8.61
2022-10-08T04:39:40.976Z,8.62
2022-10-08T04:42:11.791Z,8.60
2022-10-08T04:44:42.066Z,8.64
2022-10-08T04:47:14.389Z,8.62
2022-10-08T04:49:45.047Z,8.65
2022-10-08T04:52:17.383Z,8.65
2022-10-08T04:54:48.226Z,8.62
2022-10-08T04:57:18.042Z,8.67
2022-10-08T05:00:13.121Z,8.63
2022-10-08T05:02:41.761Z,8.65
2022-10-08T05:05:12.917Z,8.66
2022-10-08T05:07:43.026Z,8.70
2022-10-08T05:10:14.089Z,8.71
2022-10-08T05:12:44.271Z,8.71
2022-10-08T05:15:15.479Z,8.75
2022-10-08T05:17:49.117Z,8.78
2022-10-08T05:20:20.061Z,8.78
2022-10-08T05:22:50.396Z,8.79
2022-10-08T05:25:21.017Z,8.85
2022-10-08T05:27:51.926Z,8.84
2022-10-08T05:30:25.164Z,8.90
2022-10-08T05:32:58.599Z,8.98
2022-10-08T05:35:29.022Z,9.01
2022-10-08T05:38:00.097Z,9.07
2022-10-08T05:40:30.643Z,9.14
2022-10-08T05:43:01.451Z,9.13
2022-10-08T05:45:32.304Z,9.16
2022-10-08T05:48:04.640Z,9.30
2022-10-08T05:50:35.051Z,9.33
2022-10-08T05:53:09.127Z,9.32
2022-10-08T05:55:42.987Z,9.33
2022-10-08T05:58:13.070Z,9.46
2022-10-08T06:00:44.515Z,9.52
2022-10-08T06:03:17.621Z,9.63
2022-10-08T06:05:48.374Z,9.72
2022-10-08T06:08:18.038Z,9.77
2022-10-08T06:10:51.445Z,9.87
2022-10-08T06:13:22.731Z,9.93
2022-10-08T06:16:05.025Z,9.96
2022-10-08T06:18:38.605Z,10.01
2022-10-08T06:21:10.843Z,10.03
2022-10-08T06:23:42.281Z,10.11
2022-10-08T06:26:12.752Z,10.17
2022-10-08T06:28:43.658Z,10.20
2022-10-08T06:31:15.009Z,10.32
2022-10-08T06:33:48.917Z,10.41
2022-10-08T06:36:19.951Z,10.46
2022-10-08T06:38:52.687Z,10.55
2022-10-08T06:41:24.583Z,10.59
2022-10-08T06:44:03.208Z,10.68
2022-10-08T06:46:36.487Z,10.78
2022-10-08T06:49:09.748Z,10.84
2022-10-08T06:51:40.068Z,10.92
2022-10-08T06:54:10.086Z,10.99
2022-10-08T06:56:41.223Z,11.08
2022-10-08T06:59:11.083Z,11.22
2022-10-08T07:01:41.976Z,11.30
2022-10-08T07:04:15.466Z,11.41
2022-10-08T07:06:46.213Z,11.45
2022-10-08T07:09:16.065Z,11.52
2022-10-08T07:11:47.033Z,11.63
2022-10-08T07:14:17.099Z,11.74
2022-10-08T07:16:47.884Z,11.84
2022-10-08T07:19:22.728Z,11.91
2022-10-08T07:21:56.830Z,11.92
2022-10-08T07:24:31.192Z,11.99
2022-10-08T07:27:02.295Z,12.15
2022-10-08T07:29:32.665Z,12.24
2022-10-08T07:32:05.794Z,12.35
2022-10-08T07:34:38.874Z,12.40
2022-10-08T07:37:09.669Z,12.51
2022-10-08T07:39:40.061Z,12.61
2022-10-08T07:42:10.091Z,12.73
2022-10-08T07:44:40.872Z,12.91
2022-10-08T07:47:11.117Z,12.87
2022-10-08T07:49:43.694Z,13.00
2022-10-08T07:52:14.552Z,13.15
2022-10-08T07:54:45.620Z,13.17
2022-10-08T07:57:16.048Z,13.26
2022-10-08T07:59:46.909Z,13.39
2022-10-08T08:02:17.419Z,13.44
2022-10-08T08:04:50.992Z,13.36
2022-10-08T08:07:22.213Z,13.54
2022-10-08T08:09:53.227Z,13.57
2022-10-08T08:12:23.101Z,13.67
2022-10-08T08:14:54.097Z,13.67
2022-10-08T08:17:24.085Z,13.70
2022-10-08T08:19:56.756Z,13.95
2022-10-08T08:22:27.196Z,14.05
2022-10-08T08:24:57.143Z,14.11
2022-10-08T08:27:28.271Z,14.29
2022-10-08T08:29:58.070Z,14.37
2022-10-08T08:32:29.010Z,14.52
2022-10-08T08:35:02.527Z,14.51
2022-10-08T08:37:33.266Z,14.63
2022-10-08T08:40:04.739Z,14.68
2022-10-08T08:42:47.256Z,14.82
2022-10-08T08:45:45.375Z,14.95
2022-10-08T08:48:19.054Z,15.13
2022-10-08T08:50:55.732Z,15.18
2022-10-08T08:53:26.303Z,15.16
2022-10-08T08:55:58.787Z,15.41
2022-10-08T08:58:35.233Z,15.54
2022-10-08T09:01:09.430Z,15.51
2022-10-08T09:03:43.489Z,15.51
2022-10-08T09:06:20.111Z,15.50
2022-10-08T09:08:52.759Z,15.65
2022-10-08T09:11:24.457Z,15.94
2022-10-08T09:13:57.783Z,15.95
2022-10-08T09:16:29.791Z,16.04
2022-10-08T09:19:00.152Z,16.14
2022-10-08T09:21:33.658Z,16.17
2022-10-08T09:24:04.562Z,16.29
2022-10-08T09:26:37.330Z,16.29
2022-10-08T09:29:08.667Z,16.20
2022-10-08T09:31:44.109Z,16.35
2022-10-08T09:34:20.354Z,16.59
2022-10-08T09:36:53.750Z,16.68
2022-10-08T09:39:26.385Z,16.83
2022-10-08T09:42:13.775Z,16.65
2022-10-08T09:44:45.758Z,16.77
2022-10-08T09:47:17.560Z,16.83
2022-10-08T09:49:50.195Z,17.14
2022-10-08T09:52:27.549Z,17.20
2022-10-08T09:54:59.038Z,17.37
2022-10-08T09:57:30.891Z,17.39
2022-10-08T10:00:03.089Z,17.63
2022-10-08T10:02:37.572Z,17.67
2022-10-08T10:05:09.542Z,17.86
2022-10-08T10:07:44.188Z,18.17
2022-10-08T10:10:20.278Z,18.31
2022-10-08T10:12:54.077Z,18.41
2022-10-08T10:15:27.304Z,18.27
2022-10-08T10:17:57.942Z,18.25
2022-10-08T10:20:30.393Z,18.31
2022-10-08T10:23:06.610Z,18.26
2022-10-08T10:25:40.198Z,18.24
2022-10-08T10:28:11.857Z,18.40
2022-10-08T10:30:47.937Z,18.33
2022-10-08T10:33:21.630Z,18.37
2022-10-08T10:35:57.827Z,18.49
2022-10-08T10:38:31.843Z,18.69
2022-10-08T10:41:10.991Z,18.75
2022-10-08T10:43:48.327Z,18.77
2022-10-08T10:46:28.109Z,19.01
2022-10-08T10:48:59.206Z,19.09
2022-10-08T10:51:36.270Z,19.08
2022-10-08T10:54:14.404Z,18.93
2022-10-08T10:56:48.869Z,19.05
2022-10-08T10:59:34.325Z,19.15
2022-10-08T11:02:14.059Z,19.05
2022-10-08T11:04:49.877Z,19.14
2022-10-08T11:07:37.469Z,19.01
2022-10-08T11:10:12.122Z,19.01
2022-10-08T11:12:47.490Z,19.06
2022-10-08T11:15:23.496Z,19.30
2022-10-08T11:18:06.438Z,19.50
2022-10-08T11:20:42.002Z,19.56
2022-10-08T11:23:18.396Z,19.79
2022-10-08T11:26:16.411Z,19.82
2022-10-08T11:28:49.930Z,19.72
2022-10-08T11:31:27.068Z,19.57
2022-10-08T11:33:58.231Z,19.56
2022-10-08T11:36:33.203Z,19.67
2022-10-08T11:39:10.567Z,19.78
2022-10-08T11:41:49.524Z,19.74
2022-10-08T11:44:28.772Z,19.75
2022-10-08T11:47:32.911Z,19.89
2022-10-08T11:50:04.914Z,19.81
2022-10-08T11:52:36.111Z,20.00
2022-10-08T11:55:07.186Z,20.06
2022-10-08T11:58:06.188Z,20.02
2022-10-08T12:00:42.444Z,20.14
2022-10-08T12:03:24.516Z,20.34
2022-10-08T12:05:56.566Z,20.03
2022-10-08T12:08:42.123Z,20.21
2022-10-08T12:11:26.829Z,20.26
2022-10-08T12:14:15.431Z,19.90
2022-10-08T12:17:00.989Z,20.13
2022-10-08T12:20:04.449Z,20.23
2022-10-08T12:22:49.024Z,20.18
2022-10-08T12:25:32.423Z,20.12
2022-10-08T12:28:18.282Z,20.19
2022-10-08T12:30:52.174Z,20.17
2022-10-08T12:33:31.217Z,20.25
2022-10-08T12:36:07.125Z,20.31
2022-10-08T12:38:41.732Z,20.28
2022-10-08T12:41:19.087Z,20.26
2022-10-08T12:43:51.311Z,20.10
2022-10-08T12:46:30.489Z,20.27
2022-10-08T12:49:03.465Z,20.20
2022-10-08T12:51:44.582Z,20.31
2022-10-08T12:54:21.526Z,20.30
2022-10-08T12:56:55.175Z,20.29
2022-10-08T12:59:27.097Z,20.30
2022-10-08T13:01:58.403Z,20.25
2022-10-08T13:04:30.092Z,20.32
2022-10-08T13:07:03.543Z,20.30
2022-10-08T13:09:35.669Z,20.34
2022-10-08T13:12:07.961Z,20.20
2022-10-08T13:14:41.337Z,20.14
2022-10-08T13:17:29.685Z,20.06
2022-10-08T13:20:08.303Z,20.02
2022-10-08T13:22:43.152Z,20.08
2022-10-08T13:25:28.829Z,20.04
2022-10-08T13:28:12.875Z,19.89
2022-10-08T13:30:46.950Z,20.02
2022-10-08T13:33:20.241Z,19.89
2022-10-08T13:35:54.151Z,19.96
2022-10-08T13:38:28.071Z,20.01
2022-10-08T13:41:00.162Z,20.03
2022-10-08T13:43:30.297Z,20.15
2022-10-08T13:46:00.287Z,20.10
2022-10-08T13:48:31.165Z,20.03
2022-10-08T13:51:02.650Z,20.00
2022-10-08T13:53:35.867Z,20.00
2022-10-08T13:56:06.901Z,19.95
2022-10-08T13:58:37.223Z,19.92
2022-10-08T14:01:08.602Z,19.91
2022-10-08T14:03:39.545Z,19.84
2022-10-08T14:06:10.449Z,19.83
2022-10-08T14:08:43.017Z,19.80
2022-10-08T14:11:17.689Z,19.81
2022-10-08T14:13:48.237Z,19.76
2022-10-08T14:16:18.302Z,19.82
2022-10-08T14:18:49.575Z,19.87
2022-10-08T14:21:20.359Z,19.80
2022-10-08T14:23:52.867Z,19.63
2022-10-08T14:26:26.040Z,19.72
2022-10-08T14:28:56.292Z,19.66
2022-10-08T14:31:28.421Z,19.54
2022-10-08T14:33:59.952Z,19.49
2022-10-08T14:36:33.850Z,19.58
2022-10-08T14:39:07.553Z,19.43
2022-10-08T14:41:37.498Z,19.40
2022-10-08T14:44:08.779Z,19.35
2022-10-08T14:46:39.277Z,19.29
2022-10-08T14:49:11.142Z,19.25
2022-10-08T14:51:41.749Z,19.21
2022-10-08T14:54:15.067Z,19.12
2022-10-08T14:56:45.504Z,19.01
2022-10-08T14:59:16.227Z,18.95
2022-10-08T15:01:48.557Z,18.91
2022-10-08T15:04:21.656Z,18.92
2022-10-08T15:06:52.325Z,18.83
2022-10-08T15:09:25.870Z,18.76
2022-10-08T15:11:56.276Z,18.67
2022-10-08T15:14:27.352Z,18.66
2022-10-08T15:16:57.260Z,18.56
2022-10-08T15:19:28.616Z,18.48
2022-10-08T15:21:59.213Z,18.43
2022-10-08T15:24:32.522Z,18.30
2022-10-08T15:27:06.276Z,18.21
2022-10-08T15:29:37.333Z,18.06
2022-10-08T15:32:08.549Z,17.94
2022-10-08T15:34:40.461Z,17.78
2022-10-08T15:37:12.049Z,17.64
2022-10-08T15:39:44.931Z,17.56
2022-10-08T15:42:15.295Z,17.36
2022-10-08T15:44:46.803Z,17.26
2022-10-08T15:47:17.317Z,17.13
2022-10-08T15:49:48.165Z,16.94
2022-10-08T15:52:19.189Z,16.84
2022-10-08T15:54:51.873Z,16.72
2022-10-08T15:57:22.497Z,16.58
2022-10-08T15:59:53.797Z,16.45
2022-10-08T16:02:24.541Z,16.26
2022-10-08T16:04:56.423Z,16.12
2022-10-08T16:07:26.322Z,15.96
2022-10-08T16:09:59.202Z,15.93
2022-10-08T16:12:32.663Z,15.79
2022-10-08T16:15:03.642Z,15.69
2022-10-08T16:17:34.624Z,15.63
2022-10-08T16:20:05.664Z,15.51
2022-10-08T16:22:36.348Z,15.43
2022-10-08T16:25:10.166Z,15.37
2022-10-08T16:27:40.293Z,15.29
2022-10-08T16:30:11.668Z,15.07
2022-10-08T16:32:42.426Z,15.09
2022-10-08T16:35:12.438Z,15.01
2022-10-08T16:37:43.513Z,14.97
2022-10-08T16:40:19.787Z,14.86
2022-10-08T16:42:50.676Z,14.82
2022-10-08T16:45:22.330Z,14.81
2022-10-08T16:47:54.579Z,14.74
2022-10-08T16:50:24.384Z,14.62
2022-10-08T16:52:54.368Z,14.63
2022-10-08T16:55:27.738Z,14.78
2022-10-08T16:57:58.762Z,14.66
2022-10-08T17:00:31.959Z,14.56
2022-10-08T17:03:04.533Z,14.51
2022-10-08T17:05:34.331Z,14.41
2022-10-08T17:08:05.247Z,14.31
2022-10-08T17:10:38.004Z,14.31
2022-10-08T17:13:12.152Z,14.23
2022-10-08T17:15:43.546Z,14.16
2022-10-08T17:18:13.728Z,14.17
2022-10-08T17:20:44.609Z,14.10
2022-10-08T17:23:14.420Z,14.01
2022-10-08T17:25:46.972Z,13.79
2022-10-08T17:28:17.378Z,13.73
2022-10-08T17:30:48.661Z,13.72
2022-10-08T17:33:19.589Z,13.66
2022-10-08T17:35:50.824Z,13.57
2022-10-08T17:38:21.714Z,13.57
2022-10-08T17:40:54.919Z,13.54
2022-10-08T17:43:26.427Z,13.45
2022-10-08T17:46:08.132Z,13.40
2022-10-08T17:48:38.373Z,13.37
2022-10-08T17:51:09.184Z,13.31
2022-10-08T17:53:39.593Z,13.31
2022-10-08T17:56:12.923Z,13.25
2022-10-08T17:58:43.379Z,13.23
2022-10-08T18:01:14.633Z,13.18
2022-10-08T18:03:47.012Z,13.14
2022-10-08T18:06:17.507Z,13.10
2022-10-08T18:08:48.705Z,13.01
2022-10-08T18:11:21.942Z,12.93
2022-10-08T18:13:53.258Z,12.85
2022-10-08T18:16:23.493Z,12.78
2022-10-08T18:18:57.432Z,12.70
2022-10-08T18:21:27.514Z,12.68
2022-10-08T18:23:58.485Z,12.68
2022-10-08T18:26:34.702Z,12.68
2022-10-08T18:29:05.353Z,12.69
2022-10-08T18:31:35.988Z,12.69
2022-10-08T18:34:08.821Z,12.71
2022-10-08T18:36:40.031Z,12.61
2022-10-08T18:39:11.248Z,12.55
2022-10-08T18:41:44.860Z,12.56
2022-10-08T18:44:16.638Z,12.56
2022-10-08T18:46:48.287Z,12.55
2022-10-08T18:49:19.671Z,12.48
2022-10-08T18:51:52.298Z,12.44
2022-10-08T18:54:22.493Z,12.43
2022-10-08T18:56:55.437Z,12.40
2022-10-08T18:59:25.528Z,12.37
2022-10-08T19:01:59.071Z,12.37
2022-10-08T19:04:29.789Z,12.32
2022-10-08T19:07:00.779Z,12.34
2022-10-08T19:09:31.552Z,12.35
2022-10-08T19:12:03.963Z,12.30
2022-10-08T19:14:34.329Z,12.27
2022-10-08T19:17:04.734Z,12.23
2022-10-08T19:19:35.667Z,12.22
2022-10-08T19:22:06.558Z,12.40
2022-10-08T19:24:41.010Z,12.56
2022-10-08T19:27:13.934Z,12.80
2022-10-08T19:29:50.130Z,13.00
2022-10-08T19:32:20.345Z,13.17
2022-10-08T19:34:51.452Z,13.27
2022-10-08T19:37:21.385Z,13.12
2022-10-08T19:39:51.346Z,12.97
2022-10-08T19:42:24.217Z,12.96
2022-10-08T19:44:54.366Z,12.79
2022-10-08T19:47:24.380Z,12.75
2022-10-08T19:49:55.347Z,12.66
2022-10-08T19:52:26.968Z,12.59
2022-10-08T19:54:57.793Z,12.54
2022-10-08T19:57:33.255Z,12.49
2022-10-08T20:00:03.537Z,12.46
2022-10-08T20:02:34.438Z,12.43
2022-10-08T20:05:05.955Z,12.41
2022-10-08T20:07:36.372Z,12.39
2022-10-08T20:10:07.867Z,12.36
2022-10-08T20:12:43.579Z,12.33
2022-10-08T20:15:13.668Z,12.31
2022-10-08T20:17:46.027Z,12.25
2022-10-08T20:20:32.419Z,12.36
2022-10-08T20:23:04.508Z,12.32
2022-10-08T20:25:34.430Z,12.31
2022-10-08T20:28:07.064Z,12.26
2022-10-08T20:30:38.556Z,12.21
2022-10-08T20:33:08.381Z,12.16
2022-10-08T20:35:39.429Z,12.13
2022-10-08T20:38:10.452Z,12.09
2022-10-08T20:40:40.549Z,12.06
2022-10-08T20:43:14.133Z,12.03
2022-10-08T20:45:45.312Z,12.00
2022-10-08T20:48:15.028Z,11.97
2022-10-08T20:50:45.973Z,11.99
2022-10-08T20:53:16.632Z,12.07
2022-10-08T20:55:47.576Z,12.07
2022-10-08T20:58:20.070Z,12.07
2022-10-08T21:00:51.502Z,12.42
2022-10-08T21:03:21.285Z,12.45
2022-10-08T21:05:52.261Z,12.71
2022-10-08T21:08:22.418Z,13.05
2022-10-08T21:10:53.208Z,13.29
2022-10-08T21:13:29.239Z,13.46
2022-10-08T21:16:06.777Z,13.43
2022-10-08T21:18:38.045Z,13.63
2022-10-08T21:21:10.208Z,13.51
2022-10-08T21:23:40.974Z,13.41
2022-10-08T21:26:12.734Z,13.54
2022-10-08T21:28:47.048Z,13.59
2022-10-08T21:31:18.948Z,13.51
2022-10-08T21:33:50.377Z,13.48
2022-10-08T21:36:22.540Z,13.51
2022-10-08T21:38:54.079Z,13.43
2022-10-08T21:41:25.612Z,13.33
2022-10-08T21:43:59.950Z,13.36
2022-10-08T21:46:31.334Z,13.32
2022-10-08T21:49:03.860Z,13.45
2022-10-08T21:51:35.524Z,13.35
2022-10-08T21:54:06.790Z,13.32
2022-10-08T21:56:38.616Z,13.39
2022-10-08T21:59:13.926Z,13.23
2022-10-08T22:01:45.321Z,13.11
2022-10-08T22:04:17.071Z,13.23
2022-10-08T22:06:49.110Z,13.17
2022-10-08T22:09:20.934Z,13.10
2022-10-08T22:11:51.768Z,12.91
2022-10-08T22:14:25.318Z,12.79
2022-10-08T22:16:55.386Z,12.69
2022-10-08T22:19:26.306Z,12.61
2022-10-08T22:21:57.307Z,12.50
2022-10-08T22:24:27.456Z,12.62
2022-10-08T22:27:01.892Z,12.56
2022-10-08T22:29:34.992Z,12.56
2022-10-08T22:32:06.673Z,12.50
2022-10-08T22:34:41.884Z,12.45
2022-10-08T22:37:12.611Z,12.46
2022-10-08T22:39:42.421Z,12.43
2022-10-08T22:42:12.417Z,12.54
2022-10-08T22:44:46.188Z,12.65
2022-10-08T22:47:16.588Z,12.77
2022-10-08T22:49:46.816Z,12.71
2022-10-08T22:52:17.436Z,12.66
2022-10-08T22:54:48.531Z,12.68
2022-10-08T22:57:18.411Z,12.65
2022-10-08T22:59:51.151Z,12.69
2022-10-08T23:02:21.486Z,12.46
2022-10-08T23:04:51.550Z,12.40
2022-10-08T23:07:22.763Z,12.32
2022-10-08T23:09:53.435Z,12.40
2022-10-08T23:12:23.410Z,12.30
2022-10-08T23:14:58.579Z,12.32
2022-10-08T23:17:28.315Z,12.23
2022-10-08T23:19:58.401Z,12.13
2022-10-08T23:22:28.677Z,12.06
2022-10-08T23:24:58.682Z,12.01
2022-10-08T23:27:28.996Z,11.99
2022-10-08T23:30:02.686Z,12.06
2022-10-08T23:32:32.592Z,12.06
2022-10-08T23:35:03.591Z,12.15
2022-10-08T23:37:33.782Z,12.23
2022-10-08T23:40:05.375Z,12.39
2022-10-08T23:42:35.866Z,12.39
2022-10-08T23:45:10.092Z,12.34
2022-10-08T23:47:40.931Z,12.36
2022-10-08T23:50:11.890Z,12.31
2022-10-08T23:52:42.776Z,12.45
2022-10-08T23:55:14.260Z,12.40
2022-10-08T23:57:44.581Z,12.45
